Jenks, OK

11:37 AM CDT on May 25, 2015 (GMT -0500)
KOKJENKS3 | | Change Station
CLOSE
Current Station
Personal Weather Station
Location: Jenks, OK
Elevation: 630 ft
Nearby Weather Stations

Elev 630 ft 36.03 °N, 95.97 °W | Updated 23 seconds ago

Overcast
Overcast
77.0 °F
Feels Like 79 °F
N
1.0
Wind Variable Wind from SSW
Gusts 5.0 mph

Today
High -- | Low -- °F
--% Chance of Precip.
Yesterday
High -- | Low -- °F
Precip. -- in
6:11 AM 8:30 PM
Waxing Crescent, 50% visible
Pressure 29.90 in
Visibility 10.0 miles
Clouds Scattered Clouds 2000 ft
Scattered Clouds 2800 ft
Overcast 3400 ft
Heat Index 79 °F
Dew Point 70 °F
Humidity 80%
Rainfall 0.00 in
Snow Depth Not available.
UV 3 out of 12
Pollen 5.80 out of 12
Air Quality Not available.
Flu Activity Sporadic
SPECI KRVS 251620Z AUTO 18011KT 10SM SCT020 SCT028 OVC034 24/20 A2990 RMK AO2 T02440200

More Conditions Fewer Conditions

Pressure 29.90 in
Visibility 10.0 miles
Clouds Scattered Clouds 2000 ft
Scattered Clouds 2800 ft
Overcast 3400 ft
Heat Index 79 °F
Dew Point 70 °F
Humidity 80%
Rainfall 0.00 in
Snow Depth Not available.
UV 3 out of 12
Pollen 5.80 out of 12
Air Quality Not available.
Flu Activity Sporadic
SPECI KRVS 251620Z AUTO 18011KT 10SM SCT020 SCT028 OVC034 24/20 A2990 RMK AO2 T02440200

More Conditions Fewer Conditions

10-Day Weather Forecast

Almanac

Astronomy

May. 25, 2015 Rise Set
Actual Time
Civil Twilight
Nautical Twilight
Astronomical Twilight
Moon
Length of Visible Light
Length of Day
Tomorrow will be .
, % of the Moon is Illuminated

Today's Extremes

State Highs State Lows

Community

WunderPhotos

Upload Photos

1,824,048 photos uploaded!

WunderBlogs® & News

Nearby

Air Quality

  Air Quality AQ Index Pollutant
Not available.

Snow Depth

Station Depth Elevation

Earthquake Activity

City Distance Mag. Time & Date
Minimum magnitude displayed is 2.5.

Coastal Water Temperatures

Place Temperature

Stations

Nearby Weather Stations

Station Location Temp. Windchill Dew Point Humidity Wind Precip. Elev Updated Type